WEATHER DATA

YESTERDAY
Time Temp. Dewp. Hum. Bar. 1h Prec. 24h Prec.
00:06 6.9 5.8 93 1029.2 0.0000 0.0000
00:16 7 6.1 94 1029.1 0.0000 0.0000
00:26 7 6.1 94 1029.1 0.0000 0.0000
00:36 6.9 6 94 1029 0.0000 0.0000
00:46 6.9 6 94 1028.9 0.0000 0.0000
00:56 6.9 6 94 1028.8 0.0000 0.0000
01:06 6.9 6.2 95 1028.9 0.0000 0.0000
01:16 6.7 6 95 1028.9 0.0000 0.0000
01:31 6.5 5.6 94 1029 0.0000 0.0000
01:41 6.4 5.5 94 1029 0.0000 0.0000
01:51 6.3 5.4 94 1028.9 0.0000 0.0000
02:01 6.1 5.2 94 1029 0.0000 0.0000
02:12 6 5.1 94 1029 0.0000 0.0000
02:21 5.9 5.2 95 1029 0.0000 0.0000
02:30 5.8 5.1 95 1028.9 0.0000 0.0000
02:41 5.9 5.2 95 1028.7 0.0000 0.0000
02:51 5.9 5.2 95 1028.7 0.0000 0.0000
03:01 6 5.3 95 1028.6 0.0000 0.0000
03:11 6.1 5.5 96 1028.6 0.0000 0.0000
03:21 6.1 5.5 96 1028.5 0.0000 0.0000
03:31 6.2 5.6 96 1028.5 0.0000 0.0000
03:41 6.3 5.7 96 1028.5 0.0000 0.0000
03:51 6.4 5.8 96 1028.5 0.0000 0.0000
04:01 6.4 5.8 96 1028.4 0.0000 0.0000
04:11 6.5 5.9 96 1028.6 0.0000 0.0000
04:21 6.6 6 96 1028.5 0.0000 0.0000
04:31 6.6 6 96 1028.5 0.0000 0.0000
04:41 6.7 6.1 96 1028.6 0.0000 0.0000
04:51 6.7 6.3 97 1028.6 0.0000 0.0000
05:02 6.8 6.4 97 1028.7 0.0000 0.0000
05:11 6.9 6.5 97 1028.7 0.0000 0.0000
05:21 6.9 6.5 97 1028.7 0.0000 0.0000
05:31 7 6.6 97 1028.7 0.0000 0.0000
05:42 7 6.6 97 1028.7 0.0000 0.0000
05:51 7.1 6.7 97 1028.7 0.0000 0.0000
06:01 7.2 6.8 97 1028.7 0.0000 0.0000
06:12 7.2 6.8 97 1028.7 0.0000 0.0000
06:22 7.3 6.9 97 1028.7 0.0000 0.0000
06:31 7.3 7 98 1028.7 0.0000 0.0000
06:42 7.4 7.1 98 1028.7 0.0000 0.0000
06:52 7.4 7.1 98 1028.8 0.0000 0.0000
07:02 7.5 7.2 98 1028.9 0.0000 0.0000
07:11 7.5 7.2 98 1028.9 0.0000 0.0000
07:22 7.5 7.2 98 1028.9 0.0000 0.0000
07:32 7.5 7.2 98 1029 0.0000 0.0000
07:42 7.4 7.1 98 1028.8 0.0000 0.0000
07:52 7.4 7.1 98 1028.8 0.0000 0.0000
08:02 7.4 7 97 1028.8 0.0000 0.0000
08:12 7.4 7 97 1028.9 0.0000 0.0000
08:22 7.5 7.1 97 1028.9 0.0000 0.0000
08:32 7.5 7.1 97 1028.8 0.0000 0.0000
08:42 7.5 7.1 97 1029 0.0000 0.0000
08:52 7.6 7.2 97 1029.1 0.0000 0.0000
09:03 7.7 7.1 96 1029.3 0.0000 0.0000
09:12 7.8 7.2 96 1029.3 0.0000 0.0000
09:22 7.8 7.2 96 1029.5 0.0000 0.0000
09:32 7.8 7.1 95 1029.7 0.0000 0.0000
09:43 7.8 7.1 95 1029.7 0.0000 0.0000
09:52 7.8 7.1 95 1029.8 0.0000 0.0000
10:02 7.8 7.1 95 1030.1 0.0000 0.0000
10:13 7.9 7.1 95 1030.2 0.0000 0.0000
10:23 7.9 7.1 95 1030.2 0.0000 0.0000
10:32 7.9 7.1 95 1030.2 0.0000 0.0000
10:43 7.8 6.9 94 1030.2 0.0000 0.0000
10:53 7.8 6.9 94 1030.2 0.0000 0.0000
11:03 7.8 6.9 94 1030.3 0.0000 0.0000
11:12 7.9 7 94 1030.2 0.0000 0.0000
11:23 8.1 7.2 94 1030.2 0.0000 0.0000
11:33 8.4 7.3 93 1030.3 0.0000 0.0000
11:43 8.7 7.6 93 1030.2 0.0000 0.0000
11:53 8.9 7.5 91 1030.2 0.0000 0.0000
12:03 9.3 7.7 90 1030.2 0.0000 0.0000
12:13 9.6 7.7 88 1030.3 0.0000 0.0000
12:23 9.8 7.6 86 1030.2 0.0000 0.0000
12:33 10.1 7.5 84 1030.2 0.0000 0.0000
12:43 10.3 7.5 83 1030.1 0.0000 0.0000
12:53 10.4 7.1 80 1029.9 0.0000 0.0000
13:04 10.6 7.1 79 1029.9 0.0000 0.0000
13:13 10.9 7.4 79 1029.7 0.0000 0.0000
13:23 10.7 6.6 76 1029.8 0.0000 0.0000
13:33 10.6 6.4 75 1029.8 0.0000 0.0000
13:44 10.5 6.3 75 1029.8 0.0000 0.0000
13:53 10.5 6.5 76 1029.8 0.0000 0.0000
14:03 10.3 6.1 75 1029.8 0.0000 0.0000
14:14 10.1 5.7 74 1029.8 0.0000 0.0000
14:20 10.2 5.6 73 1029.8 0.0000 0.0000
14:30 10.2 5.2 71 1029.8 0.0000 0.0000
14:40 10.5 5.5 71 1029.7 0.0000 0.0000
14:50 10.8 5.1 68 1029.7 0.0000 0.0000
15:01 10.9 5.4 69 1029.7 0.0000 0.0000
15:10 11.1 5.4 68 1029.7 0.0000 0.0000
15:20 10.9 5.2 68 1029.6 0.0000 0.0000
15:31 10.8 5.1 68 1029.5 0.0000 0.0000
15:41 11.1 5.4 68 1029.5 0.0000 0.0000
15:50 10.7 5 68 1029.4 0.0000 0.0000
16:00 10.6 5.2 69 1029.2 0.0000 0.0000
16:11 10.7 4.8 67 1029.3 0.0000 0.0000
16:21 10.5 5.1 69 1029.4 0.0000 0.0000
16:30 10.3 4.4 67 1029.4 0.0000 0.0000
16:41 10.3 4.9 69 1029.3 0.0000 0.0000
16:51 10.3 4.9 69 1029.1 0.0000 0.0000
17:01 10.2 4.8 69 1029.2 0.0000 0.0000
17:10 9.9 4.5 69 1029.3 0.0000 0.0000
17:21 9.7 4.5 70 1029.3 0.0000 0.0000
17:31 9.6 4.4 70 1029.4 0.0000 0.0000
17:41 9.5 4.5 71 1029.4 0.0000 0.0000
17:51 9.6 4.8 72 1029.3 0.0000 0.0000
18:01 9.5 4.9 73 1029.3 0.0000 0.0000
18:11 9.4 4.6 72 1029.3 0.0000 0.0000
18:21 9.2 4.6 73 1029.4 0.0000 0.0000
18:31 9.2 4.8 74 1029.5 0.0000 0.0000
18:41 9.1 4.7 74 1029.6 0.0000 0.0000
18:51 8.9 4.7 75 1029.7 0.0000 0.0000
19:02 8.8 4.6 75 1029.7 0.0000 0.0000
19:11 8.6 4.6 76 1029.8 0.0000 0.0000
19:21 8.4 4.6 77 1029.9 0.0000 0.0000
19:31 8.2 4.6 78 1029.9 0.0000 0.0000
19:42 8 4.6 79 1029.7 0.0000 0.0000
19:51 7.8 4.4 79 1029.8 0.0000 0.0000
20:01 7.6 4.4 80 1029.8 0.0000 0.0000
20:12 7.3 4.1 80 1029.7 0.0000 0.0000
20:22 7.1 4.1 81 1029.8 0.0000 0.0000
20:31 6.9 4 82 1029.8 0.0000 0.0000
20:42 6.7 3.8 82 1029.8 0.0000 0.0000
20:52 6.6 3.9 83 1029.7 0.0000 0.0000
21:02 6.4 3.7 83 1029.7 0.0000 0.0000
21:11 6.2 3.7 84 1029.8 0.0000 0.0000
21:22 6 3.5 84 1029.8 0.0000 0.0000
21:32 5.9 3.6 85 1029.9 0.0000 0.0000
21:42 5.8 3.5 85 1030.2 0.0000 0.0000
21:52 5.7 3.4 85 1030.3 0.0000 0.0000
22:02 5.5 3.3 86 1030.3 0.0000 0.0000
22:12 5.5 3.3 86 1030.3 0.0000 0.0000
22:22 5.4 3.2 86 1030.3 0.0000 0.0000
22:32 5.3 3.3 87 1030.3 0.0000 0.0000
22:42 5.1 3.1 87 1030.3 0.0000 0.0000
22:52 5 3 87 1030.2 0.0000 0.0000
23:03 4.9 2.9 87 1030.1 0.0000 0.0000
23:12 4.8 2.8 87 1029.9 0.0000 0.0000
23:22 4.7 2.7 87 1029.8 0.0000 0.0000
23:32 4.5 2.5 87 1029.7 0.0000 0.0000
23:43 4.4 2.4 87 1029.7 0.0000 0.0000
23:52 4.3 2.3 87 1029.7 0.0000 0.0000

DAY STATISTIC

2019-03-24
TEMPERATURE
AVERAGE
7.8
HIGH
11.1
15:10
LOW
4.3
23:52
PRESSURE
AVERAGE
1029.4
HIGH
1030.3
11:03
LOW
1028.4
04:01
DEWPOINT
AVERAGE
5.6
HIGH
7.7
12:03
LOW
2.3
23:52
HUMIDITY
AVERAGE
87
HIGH
98
06:31
LOW
67
16:11
PRECIPITATION
RAIN HOUR
0.0
RAIN DAY
0.0
TEMPERATURE (°C)
LOW
4.3
HIGH
11.1
AVERAGE
7.8
PRESSURE (hpa)
LOW
1028.4
HIGH
1030.3
AVERAGE
1029.4
DEVICE